Waterford, Connecticut
Current Conditions -  °F | °C
As of 9:56 PM on Wednesday 22 Oct 2014 (Local Time) from KGON Reporting Station
Thunderstorm Thunderstorm  
Wind Chill: 53°   Ceiling: 1900
Heat Index: 53°   Visibility: 10mi
Dew Point: 50°   Wind: 26mph
Humidity: 89%   Direction: 30°NNE
Pressure: 29.7"   Gusts: 36mph
Location:  41.33°N, 72.12°W
Report Text: KGON 230156Z AUTO 03023G31KT 10SM -TSRA FEW013 BKN019 OVC035 12/10 A2970 RMK AO2 PK WND 02035/0104 WSHFT 0119 LTG DSNT SE AND SW TSB52 SLP057 P0007 T01170100
Loading
Personal Weather Stations






























Interactive Weather Map
Tropical Storm Tracking
New forecast layout! Learn more

10-Day Weather Forecast

Advertisements
Track Severe Weather on mobile